Terminal Aerodrome Forecast
Issued by NWS

Home | Current Version | Previous Version | Text Only | Print | Product List | Glossary On
Versions: 1 2 3 4 5 6 7 8 9 10 11 12 13 14 15 16 17 18
000
FTUS44 KBMX 262300
TAFANB
TAF
KANB 262335Z 2700/2724 29009KT P6SM FEW030 SCT250
     FM270300 27004KT P6SM FEW025 BKN080
     FM270800 25003KT P6SM FEW006 BKN015 BKN040
     FM271500 32010G18KT P6SM BKN025=

USA.gov is the U.S. government's official web portal to all federal, state and local government web resources and services.